Time;durP1;ratioP1;P1;durP2;ratioP2;P2;SDS_P1;SDS_P2;PMS_P1;PMS_P2;Temp;Humidity;BMP_temperature;BMP_pressure;BME280_temperature;BME280_humidity;BME280_pressure;Samples;Min_cycle;Max_cycle;Signal;HPM_P1;HPM_P2
2021/10/14 00:02:22;;;;;;;7.63;6.78;;;;;;;23.72;36.79;102447.53;5052017;28;20049;-73
2021/10/14 00:04:48;;;;;;;8.02;7.22;;;;;;;23.70;36.90;102438.72;5052306;28;20078;-73
2021/10/14 00:07:14;;;;;;;9.73;7.45;;;;;;;23.64;36.62;102442.94;5052591;28;20083;-72
2021/10/14 00:09:40;;;;;;;7.97;6.90;;;;;;;23.42;37.12;102445.16;5052646;28;20467;-73
2021/10/14 00:12:05;;;;;;;8.77;6.20;;;;;;;23.49;37.10;102427.78;5052237;28;20024;-72
2021/10/14 00:14:31;;;;;;;9.10;7.65;;;;;;;23.51;36.92;102433.84;5052194;28;20082;-72
2021/10/14 00:16:57;;;;;;;10.90;8.10;;;;;;;23.53;36.85;102434.28;5052107;28;20027;-72
2021/10/14 00:19:23;;;;;;;8.02;7.20;;;;;;;23.40;37.10;102429.97;5052140;28;20104;-73
2021/10/14 00:21:48;;;;;;;12.32;7.50;;;;;;;23.45;37.14;102426.91;5052105;28;20117;-77
2021/10/14 00:24:14;;;;;;;9.23;7.35;;;;;;;23.52;37.07;102427.91;5052036;28;20128;-73
2021/10/14 00:26:40;;;;;;;8.75;6.93;;;;;;;23.42;36.92;102422.84;5052073;28;20063;-72
2021/10/14 00:29:05;;;;;;;10.68;6.93;;;;;;;23.39;36.97;102420.78;5052097;28;20387;-72
2021/10/14 00:31:31;;;;;;;7.97;6.28;;;;;;;23.52;36.95;102424.31;5051948;28;20025;-73
2021/10/14 00:33:57;;;;;;;7.68;6.88;;;;;;;23.54;36.83;102417.19;5052083;28;20104;-77
2021/10/14 00:36:23;;;;;;;9.13;7.35;;;;;;;23.46;36.99;102417.38;5052315;28;20070;-73
2021/10/14 00:38:48;;;;;;;8.10;7.30;;;;;;;23.53;37.02;102411.97;5052069;28;20033;-73
2021/10/14 00:41:15;;;;;;;9.57;7.28;;;;;;;23.60;37.11;102417.75;5051915;28;20086;-72
2021/10/14 00:43:41;;;;;;;8.45;7.20;;;;;;;23.61;36.82;102416.59;5051947;28;20429;-74
2021/10/14 00:46:16;;;;;;;6.90;6.22;;;;;;;23.53;37.17;102411.97;5051984;28;20021;-75
2021/10/14 00:48:42;;;;;;;9.40;6.97;;;;;;;23.53;37.09;102407.19;5052788;28;20021;-72
2021/10/14 00:51:07;;;;;;;8.10;7.22;;;;;;;23.39;37.17;102406.84;5055936;28;20348;-74
2021/10/14 00:53:37;;;;;;;10.52;7.22;;;;;;;23.39;37.33;102404.06;5055623;28;20040;-73
2021/10/14 00:56:04;;;;;;;7.90;6.40;;;;;;;23.49;37.28;102402.69;5055892;28;20368;-72
2021/10/14 00:58:29;;;;;;;8.15;7.32;;;;;;;23.43;37.49;102401.38;5055605;28;20128;-72
2021/10/14 01:00:55;;;;;;;8.95;6.60;;;;;;;23.46;37.16;102406.22;5055510;28;20108;-72
2021/10/14 01:03:20;;;;;;;7.10;6.40;;;;;;;23.32;37.50;102405.84;5055132;28;20116;-72
2021/10/14 01:05:46;;;;;;;7.78;6.25;;;;;;;23.33;37.39;102407.47;5055461;28;20029;-78
2021/10/14 01:08:12;;;;;;;9.00;6.72;;;;;;;23.29;37.62;102401.81;5055477;28;20066;-72
2021/10/14 01:10:37;;;;;;;7.55;6.50;;;;;;;23.35;37.31;102400.38;5055327;28;20521;-71
2021/10/14 01:13:03;;;;;;;8.20;6.18;;;;;;;23.26;37.45;102408.91;5055321;28;20029;-72
2021/10/14 01:15:29;;;;;;;8.10;6.65;;;;;;;23.43;37.37;102407.75;5055256;28;20029;-72
2021/10/14 01:17:56;;;;;;;8.40;6.55;;;;;;;23.29;37.76;102398.22;5055190;28;20443;-73
2021/10/14 01:20:22;;;;;;;8.00;5.80;;;;;;;23.21;37.75;102395.25;5055194;28;20028;-78
2021/10/14 01:22:47;;;;;;;7.78;6.25;;;;;;;23.29;37.58;102389.84;5055037;28;20498;-72
2021/10/14 01:25:13;;;;;;;6.70;5.45;;;;;;;23.23;37.41;102395.69;5055121;28;20380;-72
2021/10/14 01:27:39;;;;;;;6.13;5.38;;;;;;;22.79;38.19;102380.16;5054995;28;20459;-72
2021/10/14 01:30:07;;;;;;;11.13;5.97;;;;;;;22.80;38.10;102379.78;5054962;28;20442;-71
2021/10/14 01:32:33;;;;;;;18.45;6.90;;;;;;;23.03;37.29;102370.84;5054991;28;20483;-78
2021/10/14 01:35:00;;;;;;;6.50;5.53;;;;;;;23.03;37.57;102374.44;5054879;28;20032;-72
2021/10/14 01:37:28;;;;;;;7.40;5.82;;;;;;;22.97;37.48;102368.38;5054840;28;20029;-71
2021/10/14 01:39:53;;;;;;;5.90;4.78;;;;;;;22.98;37.70;102358.81;5054805;28;20071;-72
2021/10/14 01:42:19;;;;;;;6.40;4.53;;;;;;;23.11;37.00;102362.31;5054985;28;20029;-72
2021/10/14 01:44:45;;;;;;;7.55;4.88;;;;;;;22.91;37.87;102366.19;5054709;28;20503;-72
2021/10/14 01:47:10;;;;;;;5.50;4.35;;;;;;;23.01;37.42;102357.28;5054669;28;20024;-78
2021/10/14 01:49:36;;;;;;;6.68;4.43;;;;;;;23.05;37.18;102357.38;5054603;28;20024;-72
2021/10/14 01:52:01;;;;;;;6.28;4.63;;;;;;;23.00;37.25;102355.66;5054649;28;20036;-72
2021/10/14 01:54:27;;;;;;;6.05;4.88;;;;;;;23.07;37.15;102358.66;5054548;28;20021;-72
2021/10/14 01:56:52;;;;;;;5.70;4.63;;;;;;;23.06;37.24;102357.03;5054514;28;20395;-78
2021/10/14 01:59:18;;;;;;;9.65;5.03;;;;;;;23.04;37.57;102348.19;5054441;28;20107;-73
2021/10/14 02:01:44;;;;;;;7.82;3.88;;;;;;;22.84;37.84;102338.91;5054126;28;20044;-72
2021/10/14 02:04:09;;;;;;;5.63;3.75;;;;;;;23.12;37.18;102340.81;5054514;28;20048;-72
2021/10/14 02:06:35;;;;;;;6.25;4.70;;;;;;;23.15;36.99;102335.34;5054359;28;20040;-72
2021/10/14 02:09:02;;;;;;;7.13;4.50;;;;;;;23.09;37.53;102342.34;5054384;28;20025;-73
2021/10/14 02:11:27;;;;;;;9.77;3.55;;;;;;;22.61;38.24;102332.31;5054457;28;20033;-72
2021/10/14 02:13:53;;;;;;;4.90;3.65;;;;;;;22.73;38.00;102329.44;5054202;28;20029;-72
2021/10/14 02:16:18;;;;;;;4.35;3.15;;;;;;;22.92;37.52;102329.59;5054123;28;20499;-72
2021/10/14 02:18:44;;;;;;;7.88;4.22;;;;;;;23.01;37.61;102332.19;5054059;28;20057;-73
2021/10/14 02:21:10;;;;;;;5.75;3.42;;;;;;;23.02;37.59;102330.22;5054078;28;20036;-72
2021/10/14 02:23:35;;;;;;;4.82;3.47;;;;;;;22.80;37.85;102320.47;5054184;28;20033;-72
2021/10/14 02:26:01;;;;;;;5.45;4.13;;;;;;;22.63;38.06;102314.06;5053959;28;20509;-78
2021/10/14 02:28:27;;;;;;;6.50;3.45;;;;;;;22.87;37.65;102315.09;5054008;28;20059;-72
2021/10/14 02:30:53;;;;;;;9.02;3.90;;;;;;;22.92;37.33;102320.44;5054120;28;20025;-72
2021/10/14 02:33:18;;;;;;;4.97;3.45;;;;;;;22.92;37.49;102310.09;5053785;28;20086;-72
2021/10/14 02:35:44;;;;;;;5.95;4.07;;;;;;;22.94;37.42;102312.50;5053781;28;20483;-72
2021/10/14 02:38:09;;;;;;;5.05;3.55;;;;;;;22.73;37.69;102311.91;5054043;28;20440;-78
2021/10/14 02:40:35;;;;;;;5.10;4.07;;;;;;;22.63;37.76;102302.94;5053782;28;20345;-72
2021/10/14 02:43:02;;;;;;;5.25;4.07;;;;;;;22.90;37.28;102300.47;5052503;28;20538;-72
2021/10/14 02:45:27;;;;;;;5.85;3.95;;;;;;;22.81;37.48;102302.56;5053671;28;20048;-72
2021/10/14 02:47:53;;;;;;;6.10;4.00;;;;;;;22.94;37.27;102293.81;5053534;28;20398;-72
2021/10/14 02:50:19;;;;;;;5.75;3.55;;;;;;;23.03;37.50;102290.81;5053485;28;20036;-78
2021/10/14 02:52:44;;;;;;;5.18;3.92;;;;;;;23.02;37.36;102300.38;5053443;28;20100;-72
2021/10/14 02:55:10;;;;;;;8.02;4.63;;;;;;;23.07;37.33;102294.53;5053403;28;20029;-72
2021/10/14 02:57:35;;;;;;;7.78;5.40;;;;;;;22.91;37.75;102296.50;5053337;28;20534;-72
2021/10/14 03:00:01;;;;;;;5.75;4.60;;;;;;;22.91;37.85;102291.75;5053306;28;20466;-72
2021/10/14 03:02:27;;;;;;;8.95;6.05;;;;;;;23.05;37.55;102296.88;5052953;28;20049;-77
2021/10/14 03:04:52;;;;;;;9.32;5.70;;;;;;;22.97;37.45;102295.06;5053278;28;20112;-71
2021/10/14 03:07:18;;;;;;;7.40;5.25;;;;;;;23.06;37.41;102295.69;5053120;28;20028;-72
2021/10/14 03:09:43;;;;;;;6.32;5.00;;;;;;;23.12;37.21;102297.00;5053130;28;20037;-72
2021/10/14 03:12:09;;;;;;;8.38;6.35;;;;;;;22.83;37.99;102291.91;5052568;28;20027;-76
2021/10/14 03:14:35;;;;;;;8.15;6.05;;;;;;;22.51;38.41;102300.22;5052936;28;20028;-72
2021/10/14 03:17:00;;;;;;;7.00;6.15;;;;;;;22.66;38.07;102302.19;5052954;28;20029;-72
2021/10/14 03:19:26;;;;;;;8.05;6.53;;;;;;;22.45;38.46;102303.63;5052946;28;20025;-73
2021/10/14 03:21:51;;;;;;;9.07;6.68;;;;;;;22.62;38.07;102300.50;5052709;28;20467;-72
2021/10/14 03:24:17;;;;;;;7.25;6.05;;;;;;;22.66;38.16;102299.41;5052884;28;20032;-72
2021/10/14 03:26:43;;;;;;;6.13;5.53;;;;;;;22.67;37.97;102298.28;5052835;28;20016;-72
2021/10/14 03:29:08;;;;;;;8.00;6.20;;;;;;;22.82;37.76;102295.84;5052778;28;20029;-77
2021/10/14 03:31:34;;;;;;;8.63;6.32;;;;;;;22.65;37.97;102295.00;5052667;28;20091;-72
2021/10/14 03:34:00;;;;;;;6.65;5.85;;;;;;;22.65;38.13;102292.22;5052698;28;20029;-72
2021/10/14 03:36:25;;;;;;;6.47;5.68;;;;;;;22.57;38.33;102293.22;5052678;28;20028;-72
2021/10/14 03:38:51;;;;;;;7.10;6.32;;;;;;;22.29;38.75;102289.66;5052669;28;20040;-72
2021/10/14 03:41:17;;;;;;;12.73;6.68;;;;;;;22.57;38.18;102296.00;5052587;28;20095;-78
2021/10/14 03:43:42;;;;;;;7.43;6.18;;;;;;;22.55;38.25;102284.41;5052474;28;20029;-72
2021/10/14 03:46:08;;;;;;;7.53;6.50;;;;;;;22.69;37.83;102290.34;5045995;28;20033;-72
2021/10/14 03:48:33;;;;;;;8.20;7.10;;;;;;;22.71;38.07;102290.81;5052513;28;20104;-72
2021/10/14 03:50:59;;;;;;;8.45;7.13;;;;;;;22.64;38.01;102287.81;5052495;28;20029;-77
2021/10/14 03:53:24;;;;;;;7.07;6.03;;;;;;;22.62;37.94;102283.78;5052398;28;20116;-73
2021/10/14 03:55:50;;;;;;;9.40;7.18;;;;;;;22.60;38.35;102281.38;5052413;28;20032;-73
2021/10/14 03:58:16;;;;;;;8.43;6.05;;;;;;;22.47;38.25;102279.81;5052429;28;20025;-71
2021/10/14 04:00:41;;;;;;;7.43;6.22;;;;;;;22.51;38.30;102279.91;5052397;28;20104;-77
2021/10/14 04:03:07;;;;;;;6.63;5.93;;;;;;;22.45;38.27;102268.25;5051982;28;20052;-72
2021/10/14 04:05:32;;;;;;;8.88;6.07;;;;;;;22.55;38.21;102273.28;5052346;28;20095;-73
2021/10/14 04:07:58;;;;;;;8.75;6.03;;;;;;;22.38;38.46;102274.41;5052154;28;20095;-77
2021/10/14 04:10:24;;;;;;;9.85;6.38;;;;;;;22.55;38.14;102273.28;5052368;28;20029;-76
2021/10/14 04:12:49;;;;;;;8.60;5.50;;;;;;;22.60;37.93;102273.00;5052613;28;20520;-72
2021/10/14 04:15:16;;;;;;;7.43;5.80;;;;;;;22.62;37.83;102265.09;5052222;28;20446;-72
2021/10/14 04:17:41;;;;;;;9.45;5.32;;;;;;;22.61;37.73;102248.75;5052190;28;20021;-72
2021/10/14 04:20:08;;;;;;;5.93;4.93;;;;;;;22.66;37.71;102257.63;5052279;28;20071;-72
2021/10/14 04:22:34;;;;;;;8.15;5.82;;;;;;;22.67;37.78;102256.47;5052092;28;20082;-75
2021/10/14 04:24:59;;;;;;;6.30;4.82;;;;;;;22.73;37.77;102250.63;5055345;28;20024;-76
2021/10/14 04:27:25;;;;;;;5.88;4.65;;;;;;;22.60;37.71;102239.59;5056510;28;20021;-73
2021/10/14 04:29:50;;;;;;;7.72;4.60;;;;;;;22.66;37.66;102246.47;5056145;28;20519;-72
2021/10/14 04:32:16;;;;;;;4.70;4.20;;;;;;;22.64;37.56;102246.03;5056374;28;20490;-72
2021/10/14 04:34:42;;;;;;;7.53;4.82;;;;;;;22.65;37.63;102242.09;5055980;28;20017;-72
2021/10/14 04:37:08;;;;;;;8.07;4.90;;;;;;;22.63;37.54;102241.63;5056018;28;20467;-73
2021/10/14 04:39:36;;;;;;;5.47;4.75;;;;;;;22.63;37.67;102238.03;5055922;28;20021;-78
2021/10/14 04:42:04;;;;;;;6.80;4.53;;;;;;;22.69;37.37;102248.56;5055792;28;20021;-75
2021/10/14 04:44:29;;;;;;;6.75;4.63;;;;;;;22.73;37.39;102242.25;5055901;28;20078;-72
2021/10/14 04:46:55;;;;;;;6.07;5.15;;;;;;;22.64;37.75;102231.31;5056159;28;20528;-77
2021/10/14 04:49:20;;;;;;;7.60;4.50;;;;;;;22.71;37.54;102235.06;5055709;28;20493;-72
2021/10/14 04:51:46;;;;;;;7.53;4.47;;;;;;;22.69;37.35;102233.84;5055735;28;20045;-71
2021/10/14 04:54:12;;;;;;;9.50;4.13;;;;;;;22.76;37.32;102230.41;5055583;28;20029;-71
2021/10/14 04:56:37;;;;;;;11.77;5.00;;;;;;;22.78;37.23;102231.66;5055986;28;20055;-77
2021/10/14 04:59:03;;;;;;;7.38;4.55;;;;;;;22.85;37.17;102226.28;5055628;28;20494;-77
2021/10/14 05:01:28;;;;;;;6.28;3.83;;;;;;;22.90;37.04;102236.38;5055811;28;20463;-71
2021/10/14 05:03:54;;;;;;;6.75;4.03;;;;;;;22.98;37.15;102229.81;5055203;28;20571;-72
2021/10/14 05:06:20;;;;;;;5.95;4.32;;;;;;;22.86;37.19;102218.75;5055356;28;20024;-72
2021/10/14 05:08:45;;;;;;;4.65;3.70;;;;;;;22.98;37.19;102216.66;5055403;28;20032;-73
2021/10/14 05:11:12;;;;;;;7.32;4.05;;;;;;;22.97;37.07;102217.84;5055373;28;20029;-77
2021/10/14 05:13:38;;;;;;;5.28;4.18;;;;;;;22.93;37.21;102216.13;5055320;28;20035;-74
2021/10/14 05:16:04;;;;;;;6.50;4.10;;;;;;;22.96;37.03;102215.38;5055254;28;20025;-74
2021/10/14 05:18:30;;;;;;;7.38;3.90;;;;;;;22.96;37.21;102212.59;5055226;28;20104;-72
2021/10/14 05:20:56;;;;;;;7.53;4.28;;;;;;;22.93;37.12;102210.56;5055178;28;20021;-70
2021/10/14 05:23:21;;;;;;;4.60;3.95;;;;;;;22.95;37.09;102208.22;5055104;28;20047;-71
2021/10/14 05:25:47;;;;;;;6.68;4.32;;;;;;;22.86;37.58;102216.75;5055095;28;20361;-76
2021/10/14 05:28:12;;;;;;;7.90;3.90;;;;;;;22.83;37.51;102208.31;5055018;28;20017;-71
2021/10/14 05:30:38;;;;;;;4.97;4.07;;;;;;;22.87;37.46;102206.41;5055028;28;20061;-70
2021/10/14 05:33:04;;;;;;;4.80;3.50;;;;;;;22.88;37.27;102202.47;5054977;28;20032;-77
2021/10/14 05:35:29;;;;;;;5.97;3.63;;;;;;;22.87;37.59;102198.88;5054464;28;20075;-76
2021/10/14 05:37:55;;;;;;;6.50;4.32;;;;;;;22.75;37.76;102198.97;5054830;28;20608;-76
2021/10/14 05:40:21;;;;;;;6.38;3.70;;;;;;;22.84;37.37;102198.75;5054900;28;20017;-76
2021/10/14 05:42:46;;;;;;;7.45;4.05;;;;;;;22.85;37.63;102204.00;5054689;28;20032;-74
2021/10/14 05:45:13;;;;;;;6.78;3.78;;;;;;;22.77;37.53;102187.44;5054684;28;20360;-72
2021/10/14 05:47:39;;;;;;;4.38;3.25;;;;;;;22.83;37.59;102195.16;5054660;28;20020;-72
2021/10/14 05:50:06;;;;;;;6.50;4.28;;;;;;;22.62;38.07;102181.53;5054523;28;20021;-72
2021/10/14 05:52:31;;;;;;;7.50;3.72;;;;;;;22.71;37.87;102182.13;5054670;28;20115;-70
2021/10/14 05:54:59;;;;;;;7.72;3.85;;;;;;;22.84;37.48;102173.69;5054540;28;20510;-71
2021/10/14 05:57:25;;;;;;;5.50;3.55;;;;;;;22.90;37.56;102172.28;5054762;28;20037;-72
2021/10/14 05:59:50;;;;;;;8.13;4.53;;;;;;;22.82;37.80;102176.84;5051503;28;20025;-78
2021/10/14 06:02:16;;;;;;;12.50;4.63;;;;;;;22.86;37.72;102180.53;5051135;28;20408;-73
2021/10/14 06:04:42;;;;;;;9.77;4.20;;;;;;;22.89;37.55;102167.84;5050047;28;20037;-76
2021/10/14 06:07:08;;;;;;;5.65;3.70;;;;;;;22.80;37.86;102170.81;5051359;28;20029;-76
2021/10/14 06:09:33;;;;;;;5.65;3.75;;;;;;;22.85;37.71;102170.56;5051468;28;20031;-76
2021/10/14 06:11:59;;;;;;;7.82;3.88;;;;;;;22.88;37.69;102175.41;5051352;28;20587;-77
2021/10/14 06:14:25;;;;;;;7.97;3.72;;;;;;;22.80;37.60;102173.59;5051341;28;20044;-76
2021/10/14 06:16:50;;;;;;;5.55;4.07;;;;;;;22.85;37.73;102164.16;5051143;28;20475;-78
2021/10/14 06:19:16;;;;;;;8.15;3.83;;;;;;;22.82;37.93;102168.47;5051174;28;20028;-76
2021/10/14 06:21:42;;;;;;;7.47;4.35;;;;;;;22.86;37.62;102168.59;5051178;28;20051;-75
2021/10/14 06:24:08;;;;;;;9.43;3.92;;;;;;;22.83;37.93;102172.88;5051101;28;20539;-71
2021/10/14 06:26:33;;;;;;;8.32;3.88;;;;;;;22.68;38.25;102166.16;5053415;28;20510;-71
2021/10/14 06:28:59;;;;;;;7.85;3.70;;;;;;;22.81;37.93;102172.41;5053875;28;20374;-73
2021/10/14 06:31:24;;;;;;;5.43;3.75;;;;;;;22.78;38.18;102163.97;5054133;28;20070;-72
2021/10/14 06:33:50;;;;;;;5.30;3.75;;;;;;;22.82;37.65;102164.84;5053874;28;20036;-72
2021/10/14 06:36:16;;;;;;;6.50;3.67;;;;;;;22.84;37.98;102155.00;5054149;28;20497;-72
2021/10/14 06:38:42;;;;;;;9.15;4.32;;;;;;;22.76;37.94;102156.00;5054022;28;20032;-74
2021/10/14 06:41:07;;;;;;;6.22;4.28;;;;;;;22.88;37.76;102152.28;5053785;28;20402;-71
2021/10/14 06:43:33;;;;;;;7.65;4.13;;;;;;;22.89;37.76;102148.34;5053485;28;20033;-72
2021/10/14 06:45:58;;;;;;;6.90;4.57;;;;;;;22.82;38.12;102151.75;5052995;28;20025;-74
2021/10/14 06:48:24;;;;;;;9.55;4.32;;;;;;;22.80;38.12;102150.50;5053322;28;20158;-73
2021/10/14 06:50:49;;;;;;;9.23;4.70;;;;;;;22.72;38.30;102143.94;5053445;28;20029;-71
2021/10/14 06:53:15;;;;;;;10.73;5.70;;;;;;;22.80;37.93;102142.13;5053582;28;20028;-68
2021/10/14 06:55:41;;;;;;;11.25;6.45;;;;;;;22.75;38.20;102145.19;5053363;28;20021;-73
2021/10/14 06:58:07;;;;;;;7.45;5.55;;;;;;;22.72;38.00;102141.16;5053578;28;20029;-69
2021/10/14 07:00:33;;;;;;;8.23;5.75;;;;;;;22.79;37.87;102137.72;5053217;28;20498;-68
2021/10/14 07:02:58;;;;;;;8.60;6.03;;;;;;;22.85;37.91;102136.28;5052993;28;20048;-67
2021/10/14 07:05:24;;;;;;;9.15;6.50;;;;;;;22.69;38.29;102131.56;5053187;28;20471;-68
2021/10/14 07:07:50;;;;;;;9.23;5.47;;;;;;;22.74;38.13;102136.03;5053004;28;20036;-73
2021/10/14 07:10:16;;;;;;;9.35;5.95;;;;;;;22.76;37.92;102130.91;5051526;28;20052;-85
2021/10/14 07:12:42;;;;;;;10.15;6.70;;;;;;;22.84;37.71;102134.66;5050443;28;20052;-68
2021/10/14 07:15:09;;;;;;;11.63;7.15;;;;;;;22.74;38.10;102136.03;5052366;28;20052;-67
2021/10/14 07:17:35;;;;;;;9.07;5.85;;;;;;;22.70;38.01;102132.34;5052542;28;20480;-75
2021/10/14 07:20:01;;;;;;;12.73;6.78;;;;;;;22.77;37.70;102135.31;5052861;28;20399;-74
2021/10/14 07:22:26;;;;;;;12.13;9.27;;;;;;;22.84;37.53;102134.66;5052783;28;20037;-70
2021/10/14 07:24:52;;;;;;;8.85;5.93;;;;;;;22.86;37.87;102129.56;5052729;28;20036;-70
2021/10/14 07:27:21;;;;;;;10.63;6.47;;;;;;;22.77;37.83;102143.66;5052838;28;20391;-74
2021/10/14 07:29:47;;;;;;;7.70;5.13;;;;;;;22.84;37.75;102131.88;5052716;28;20480;-71
2021/10/14 07:32:12;;;;;;;9.05;5.35;;;;;;;22.85;37.94;102127.94;5052650;28;20036;-70
2021/10/14 07:34:38;;;;;;;6.82;5.25;;;;;;;22.91;37.94;102115.34;5052702;28;20032;-72
2021/10/14 07:37:06;;;;;;;8.40;5.03;;;;;;;22.87;37.84;102120.84;5052680;28;20510;-72
2021/10/14 07:39:33;;;;;;;7.28;5.15;;;;;;;22.95;37.98;102119.81;5052513;28;20053;-71
2021/10/14 07:41:58;;;;;;;5.60;4.72;;;;;;;22.94;37.94;102117.41;5052591;28;20110;-72
2021/10/14 07:44:24;;;;;;;10.77;5.72;;;;;;;23.03;37.71;102100.47;5052575;28;20463;-70
2021/10/14 07:46:50;;;;;;;9.45;5.03;;;;;;;23.01;37.45;102112.00;5052512;28;20115;-70
2021/10/14 07:49:18;;;;;;;11.93;6.35;;;;;;;23.00;37.45;102107.59;5052725;28;20039;-71
2021/10/14 07:51:45;;;;;;;10.48;4.38;;;;;;;23.03;37.55;102092.09;5052021;28;20716;-72
2021/10/14 07:54:11;;;;;;;5.53;4.53;;;;;;;23.12;37.45;102096.28;5052010;28;20154;-75
2021/10/14 07:56:37;;;;;;;6.22;3.97;;;;;;;23.12;37.29;102099.06;5051179;28;20433;-74
2021/10/14 07:59:04;;;;;;;15.02;4.75;;;;;;;23.15;37.51;102097.56;5052252;28;20021;-72
2021/10/14 08:01:29;;;;;;;9.73;4.80;;;;;;;23.20;37.50;102092.50;5052329;28;20029;-71
2021/10/14 08:03:55;;;;;;;7.55;3.92;;;;;;;23.10;37.72;102093.06;5052145;28;20118;-71
2021/10/14 08:06:20;;;;;;;5.65;3.90;;;;;;;23.18;37.23;102092.03;5052281;28;20104;-73
2021/10/14 08:08:46;;;;;;;7.60;4.40;;;;;;;23.19;37.34;102085.28;5051220;28;20059;-71
2021/10/14 08:11:12;;;;;;;9.68;4.55;;;;;;;23.20;37.27;102084.13;5052247;28;20075;-75
2021/10/14 08:13:38;;;;;;;7.88;4.55;;;;;;;23.24;37.25;102082.22;5052348;28;20044;-72
2021/10/14 08:16:04;;;;;;;8.85;4.80;;;;;;;23.37;37.11;102090.44;5051047;28;20029;-71
2021/10/14 08:18:31;;;;;;;7.10;4.80;;;;;;;23.41;37.31;102085.72;5052569;28;20100;-72
2021/10/14 08:20:58;;;;;;;7.53;4.20;;;;;;;23.35;37.43;102087.19;5067856;28;20026;-72
2021/10/14 08:23:26;;;;;;;8.65;4.03;;;;;;;23.39;37.19;102093.66;5052221;28;20061;-74
2021/10/14 08:25:51;;;;;;;8.38;4.40;;;;;;;23.50;37.08;102095.50;5052214;28;20071;-71
2021/10/14 08:28:17;;;;;;;6.45;4.43;;;;;;;23.31;37.46;102103.84;5052120;28;20021;-71
2021/10/14 08:30:44;;;;;;;6.80;4.15;;;;;;;23.31;37.74;102098.28;5052135;28;20025;-71
2021/10/14 08:33:10;;;;;;;9.27;4.47;;;;;;;23.33;37.89;102097.91;5052096;28;20071;-71
2021/10/14 08:35:36;;;;;;;8.75;4.97;;;;;;;23.42;37.53;102095.69;5051995;28;20029;-71
2021/10/14 08:38:07;;;;;;;10.13;4.55;;;;;;;23.40;37.54;102095.25;5051944;28;20532;-72
2021/10/14 08:40:34;;;;;;;5.55;3.97;;;;;;;23.39;37.46;102097.25;5052277;28;20379;-71
2021/10/14 08:43:04;;;;;;;7.50;4.57;;;;;;;23.44;37.74;102090.59;5052004;28;20360;-71
2021/10/14 08:45:34;;;;;;;7.25;3.88;;;;;;;23.53;37.64;102089.16;5051970;28;20028;-70
2021/10/14 08:48:02;;;;;;;11.45;4.95;;;;;;;23.48;37.46;102089.47;5051958;28;20021;-71
2021/10/14 08:50:28;;;;;;;7.63;3.50;;;;;;;23.52;37.57;102092.31;5051916;28;20021;-71
2021/10/14 08:52:54;;;;;;;8.40;5.07;;;;;;;23.41;37.63;102089.31;5051972;28;20150;-76
2021/10/14 08:55:20;;;;;;;5.15;3.60;;;;;;;23.55;37.45;102086.00;5051924;28;20053;-73
2021/10/14 08:57:45;;;;;;;16.13;5.03;;;;;;;23.59;37.58;102086.09;5051882;28;20025;-72
2021/10/14 09:00:12;;;;;;;8.57;4.28;;;;;;;23.57;37.32;102083.63;5052112;28;20029;-72
2021/10/14 09:02:41;;;;;;;14.65;5.45;;;;;;;23.57;37.68;102089.22;5051565;28;20134;-72
2021/10/14 09:05:09;;;;;;;8.02;3.95;;;;;;;23.66;37.77;102084.25;5051738;28;20021;-73
2021/10/14 09:07:36;;;;;;;5.75;3.22;;;;;;;23.48;37.94;102094.22;5051831;28;20020;-73
2021/10/14 09:10:12;;;;;;;6.90;3.40;;;;;;;23.52;38.00;102093.13;5053231;28;20041;-76
2021/10/14 09:12:41;;;;;;;7.38;3.17;;;;;;;23.73;37.52;102091.97;5055445;28;20095;-76
2021/10/14 09:15:10;;;;;;;11.48;4.22;;;;;;;23.83;37.41;102101.69;5055327;28;20441;-76
2021/10/14 09:17:38;;;;;;;6.35;3.85;;;;;;;23.64;37.62;102100.53;5055185;28;20035;-71
2021/10/14 09:20:34;;;;;;;3.72;2.92;;;;;;;23.83;37.48;102096.13;5070673;28;20087;-72
2021/10/14 09:23:09;;;;;;;7.85;3.60;;;;;;;23.94;36.97;102083.16;5054523;28;20040;-72
2021/10/14 09:25:39;;;;;;;6.13;3.03;;;;;;;24.00;37.08;102084.47;5055140;28;20061;-72
2021/10/14 09:28:07;;;;;;;5.28;2.95;;;;;;;23.91;37.18;102081.13;5055398;28;20032;-74
2021/10/14 09:30:41;;;;;;;20.73;3.97;;;;;;;24.06;36.85;102075.41;5055337;28;20368;-73
2021/10/14 09:33:06;;;;;;;16.30;4.30;;;;;;;24.06;36.97;102074.59;5055001;28;20033;-74
2021/10/14 09:35:32;;;;;;;13.70;3.90;;;;;;;24.13;36.90;102065.53;5054897;28;20109;-71
2021/10/14 09:37:57;;;;;;;9.07;3.78;;;;;;;24.21;36.74;102064.47;5054940;28;20061;-76
2021/10/14 09:40:26;;;;;;;22.27;5.10;;;;;;;24.29;36.21;102063.41;5054630;28;20025;-73
2021/10/14 09:42:54;;;;;;;7.85;4.05;;;;;;;24.37;36.27;102058.75;5052975;28;20025;-72
2021/10/14 09:45:27;;;;;;;9.45;3.40;;;;;;;24.39;36.22;102064.75;5052932;28;20079;-72
2021/10/14 09:48:04;;;;;;;7.55;3.30;;;;;;;24.30;36.17;102056.63;5052850;28;20020;-74
2021/10/14 09:50:31;;;;;;;9.88;3.38;;;;;;;24.25;36.59;102046.56;5052892;28;20116;-72
2021/10/14 09:53:04;;;;;;;6.18;3.28;;;;;;;24.28;36.61;102045.03;5052712;28;20053;-74
2021/10/14 09:55:30;;;;;;;5.03;2.92;;;;;;;24.50;35.94;102047.00;5068061;28;20041;-71
2021/10/14 09:57:57;;;;;;;5.32;2.85;;;;;;;24.45;36.49;102040.91;5053376;28;20102;-70
2021/10/14 10:00:23;;;;;;;6.97;3.08;;;;;;;24.48;36.01;102042.94;5052613;28;20052;-69
2021/10/14 10:02:50;;;;;;;4.80;2.92;;;;;;;24.48;35.94;102029.78;5053712;28;20041;-69
2021/10/14 10:05:16;;;;;;;8.27;4.13;;;;;;;24.67;35.64;102023.28;5053777;28;20021;-70
2021/10/14 10:07:43;;;;;;;7.03;3.30;;;;;;;24.67;35.52;102017.69;5053732;28;20060;-70
2021/10/14 10:10:14;;;;;;;5.50;3.72;;;;;;;24.66;35.52;102010.50;5054248;28;20109;-72
2021/10/14 10:12:40;;;;;;;6.22;3.10;;;;;;;24.75;35.50;102008.19;5053033;28;20487;-70
2021/10/14 10:15:06;;;;;;;13.90;3.97;;;;;;;24.69;35.54;102003.31;5052271;28;20111;-70
2021/10/14 10:17:41;;;;;;;7.68;3.75;;;;;;;24.68;35.30;102008.13;5052504;28;20021;-69
2021/10/14 10:20:10;;;;;;;7.65;3.20;;;;;;;24.83;35.20;102007.09;5048634;28;20028;-70
2021/10/14 10:22:35;;;;;;;9.48;3.25;;;;;;;25.04;34.54;102000.22;5048495;28;20024;-69
2021/10/14 10:25:22;;;;;;;5.55;2.95;;;;;;;24.96;34.67;101999.28;5051588;28;20021;-69
2021/10/14 10:27:48;;;;;;;10.18;4.38;;;;;;;25.06;34.67;102000.63;5052751;28;20060;-72
2021/10/14 10:30:32;;;;;;;6.75;3.72;;;;;;;24.91;34.45;101994.81;5053951;28;20107;-74
2021/10/14 10:32:58;;;;;;;4.13;2.83;;;;;;;25.11;34.46;101998.28;5053854;28;20115;-69
2021/10/14 10:35:45;;;;;;;6.68;3.75;;;;;;;25.05;34.32;101990.63;5053978;28;20406;-69
2021/10/14 10:38:23;;;;;;;7.65;3.45;;;;;;;25.07;34.27;101996.63;5053485;28;20037;-73
2021/10/14 10:40:51;;;;;;;10.40;3.63;;;;;;;25.21;34.21;101996.78;5053621;28;20029;-69
2021/10/14 10:43:29;;;;;;;6.22;2.90;;;;;;;25.12;34.23;101997.09;5053411;28;20025;-70
2021/10/14 10:46:08;;;;;;;3.47;2.80;;;;;;;24.92;34.30;101995.63;5053808;28;20479;-69
2021/10/14 10:48:36;;;;;;;6.03;3.42;;;;;;;25.07;33.96;101985.44;5053388;28;20506;-69
2021/10/14 10:51:03;;;;;;;7.38;4.10;;;;;;;24.99;33.74;101992.13;5052428;28;20029;-70
2021/10/14 10:53:40;;;;;;;3.97;2.70;;;;;;;25.02;33.83;101985.78;5052065;28;20032;-69
2021/10/14 10:56:27;;;;;;;4.75;2.95;;;;;;;24.92;33.95;101988.03;5052986;28;20036;-73
2021/10/14 10:58:54;;;;;;;6.32;3.67;;;;;;;25.19;33.71;101982.41;5052924;28;20028;-70
2021/10/14 11:01:19;;;;;;;8.63;4.00;;;;;;;25.27;33.91;101978.47;5053098;28;20040;-70
2021/10/14 11:03:51;;;;;;;6.03;2.60;;;;;;;25.00;33.95;101974.94;5052485;28;20047;-71
2021/10/14 11:06:16;;;;;;;9.43;3.05;;;;;;;25.15;33.68;101971.16;5052605;28;20028;-71
2021/10/14 11:08:42;;;;;;;9.02;3.00;;;;;;;25.15;34.03;101964.75;5051528;28;20029;-71
2021/10/14 11:11:18;;;;;;;6.32;3.17;;;;;;;25.19;33.68;101965.63;5052653;28;20422;-75
2021/10/14 11:13:47;;;;;;;7.25;3.40;;;;;;;25.16;33.61;101967.19;5050790;28;20037;-73
2021/10/14 11:16:14;;;;;;;4.55;2.72;;;;;;;25.00;33.75;101962.97;5052559;28;20057;-74
2021/10/14 11:18:43;;;;;;;4.72;2.83;;;;;;;25.11;33.60;101964.75;5052519;28;20034;-73
2021/10/14 11:21:12;;;;;;;8.20;3.17;;;;;;;25.06;33.69;101962.28;5051683;28;20018;-71
2021/10/14 11:23:44;;;;;;;4.28;2.85;;;;;;;25.16;33.93;101964.41;5051980;28;20028;-72